Time;durP1;ratioP1;P1;durP2;ratioP2;P2;SDS_P1;SDS_P2;PMS_P1;PMS_P2;Temp;Humidity;BMP_temperature;BMP_pressure;BME280_temperature;BME280_humidity;BME280_pressure;Samples;Min_cycle;Max_cycle;Signal;HPM_P1;HPM_P2
2024/02/06 00:01:27;;;;;;;11.67;7.10;;;10.10;99.90;;;;;;5034305;28;20385;-81
2024/02/06 00:03:56;;;;;;;12.67;6.07;;;10.10;99.90;;;;;;5032807;28;20492;-81
2024/02/06 00:06:22;;;;;;;12.32;7.35;;;10.10;99.90;;;;;;5032681;28;20038;-81
2024/02/06 00:08:47;;;;;;;12.07;6.10;;;10.10;99.90;;;;;;5032779;28;20025;-81
2024/02/06 00:11:13;;;;;;;11.07;6.60;;;10.10;99.90;;;;;;5032387;28;20029;-81
2024/02/06 00:13:42;;;;;;;16.73;8.10;;;10.10;99.90;;;;;;5032739;28;20021;-81
2024/02/06 00:16:13;;;;;;;11.60;6.83;;;10.00;99.90;;;;;;5033919;28;20065;-81
2024/02/06 00:18:39;;;;;;;15.60;7.03;;;10.00;99.90;;;;;;5033639;28;20516;-82
2024/02/06 00:21:05;;;;;;;14.65;7.15;;;10.00;99.90;;;;;;5032144;28;20021;-81
2024/02/06 00:23:31;;;;;;;14.70;7.10;;;10.00;99.90;;;;;;5032311;28;20048;-80
2024/02/06 00:25:56;;;;;;;13.98;7.60;;;10.00;99.90;;;;;;5032452;28;20085;-81
2024/02/06 00:28:22;;;;;;;14.50;7.68;;;10.00;99.90;;;;;;5033537;28;20035;-81
2024/02/06 00:30:48;;;;;;;17.10;7.55;;;10.00;99.90;;;;;;5033424;28;20527;-81
2024/02/06 00:33:14;;;;;;;20.38;9.95;;;10.00;99.90;;;;;;5032100;28;20022;-81
2024/02/06 00:35:40;;;;;;;15.30;7.70;;;10.00;99.90;;;;;;5033764;28;20029;-82
2024/02/06 00:38:06;;;;;;;16.53;8.60;;;10.00;99.90;;;;;;5032112;28;20358;-81
2024/02/06 00:40:32;;;;;;;20.53;8.77;;;10.00;99.90;;;;;;5033536;28;20018;-81
2024/02/06 00:42:57;;;;;;;19.17;8.48;;;10.00;99.90;;;;;;5033429;28;20022;-80
2024/02/06 00:45:23;;;;;;;16.43;9.27;;;10.00;99.90;;;;;;5031932;28;20473;-81
2024/02/06 00:47:49;;;;;;;15.32;8.10;;;10.00;99.90;;;;;;5033386;28;20049;-80
2024/02/06 00:50:16;;;;;;;18.07;9.30;;;10.00;99.90;;;;;;5032247;28;20569;-81
2024/02/06 00:52:42;;;;;;;15.20;8.50;;;10.00;99.90;;;;;;5034580;28;20032;-81
2024/02/06 00:55:08;;;;;;;19.83;8.77;;;10.00;99.90;;;;;;5033208;28;20026;-81
2024/02/06 00:57:33;;;;;;;17.27;9.27;;;10.00;99.90;;;;;;5032812;28;20580;-81
2024/02/06 00:59:59;;;;;;;14.82;9.88;;;10.00;99.90;;;;;;5031727;28;20112;-81
2024/02/06 01:02:25;;;;;;;14.70;8.70;;;10.00;99.90;;;;;;5032981;28;20104;-81
2024/02/06 01:04:52;;;;;;;14.80;9.10;;;10.00;99.90;;;;;;5033471;28;20026;-80
2024/02/06 01:07:20;;;;;;;16.70;9.40;;;10.10;99.90;;;;;;5033334;28;20030;-81
2024/02/06 01:09:46;;;;;;;16.45;9.27;;;10.00;99.90;;;;;;5032458;28;20449;-81
2024/02/06 01:12:12;;;;;;;19.98;9.00;;;10.00;99.90;;;;;;5033099;28;20048;-81
2024/02/06 01:14:37;;;;;;;14.70;9.33;;;10.00;99.90;;;;;;5033111;28;20083;-81
2024/02/06 01:17:07;;;;;;;15.82;9.48;;;10.00;99.90;;;;;;5031671;28;20021;-81
2024/02/06 01:19:33;;;;;;;15.23;8.17;;;10.00;99.90;;;;;;5032979;28;20100;-80
2024/02/06 01:21:58;;;;;;;19.20;9.60;;;10.00;99.90;;;;;;5031506;28;20045;-81
2024/02/06 01:24:24;;;;;;;13.37;8.87;;;10.10;99.90;;;;;;5033079;28;20366;-80
2024/02/06 01:26:50;;;;;;;16.57;8.87;;;10.10;99.90;;;;;;5032879;28;20417;-81
2024/02/06 01:29:16;;;;;;;22.17;9.73;;;10.10;99.90;;;;;;5031785;28;20022;-82
2024/02/06 01:31:41;;;;;;;19.63;9.03;;;10.10;99.90;;;;;;5031466;28;20025;-81
2024/02/06 01:34:07;;;;;;;21.60;9.23;;;10.10;99.90;;;;;;5032959;28;20040;-81
2024/02/06 01:36:36;;;;;;;16.83;8.97;;;10.10;99.90;;;;;;5031344;28;20064;-80
2024/02/06 01:39:02;;;;;;;17.67;8.73;;;10.10;99.90;;;;;;5032748;28;20057;-81
2024/02/06 01:41:28;;;;;;;17.05;8.00;;;10.10;99.90;;;;;;5032968;28;20022;-80
2024/02/06 01:43:54;;;;;;;17.63;9.30;;;10.10;99.90;;;;;;5031405;28;20082;-81
2024/02/06 01:46:20;;;;;;;17.63;8.10;;;10.10;99.90;;;;;;5032747;28;20076;-80
2024/02/06 01:48:47;;;;;;;18.23;8.30;;;10.10;99.90;;;;;;5032182;28;20056;-81
2024/02/06 01:51:15;;;;;;;20.47;9.17;;;10.10;99.90;;;;;;5032849;28;20557;-81
2024/02/06 01:53:41;;;;;;;16.97;7.43;;;10.10;99.90;;;;;;5032574;28;20029;-80
2024/02/06 01:56:08;;;;;;;14.07;7.80;;;10.10;99.90;;;;;;5032701;28;20025;-81
2024/02/06 01:58:34;;;;;;;17.27;7.37;;;10.10;99.90;;;;;;5032701;28;20107;-81
2024/02/06 02:01:01;;;;;;;15.97;7.33;;;10.10;99.90;;;;;;5032466;28;20030;-82
2024/02/06 02:03:28;;;;;;;14.85;6.78;;;10.10;99.90;;;;;;5032554;28;20049;-81
2024/02/06 02:05:54;;;;;;;17.90;7.75;;;10.20;99.90;;;;;;5032813;28;20021;-80
2024/02/06 02:08:21;;;;;;;14.57;6.87;;;10.10;99.90;;;;;;5031429;28;20028;-81
2024/02/06 02:10:46;;;;;;;15.15;7.03;;;10.10;99.90;;;;;;5031232;28;20051;-80
2024/02/06 02:13:12;;;;;;;21.40;7.43;;;10.20;99.90;;;;;;5032545;28;20470;-82
2024/02/06 02:15:38;;;;;;;15.10;6.88;;;10.20;99.90;;;;;;5032394;28;20029;-81
2024/02/06 02:18:07;;;;;;;17.60;7.83;;;10.10;99.90;;;;;;5032363;28;20025;-80
2024/02/06 02:20:32;;;;;;;15.98;7.25;;;10.10;99.90;;;;;;5033281;28;20101;-81
2024/02/06 02:22:58;;;;;;;16.75;6.50;;;10.20;99.90;;;;;;5036167;28;20096;-80
2024/02/06 02:25:24;;;;;;;15.40;6.27;;;10.10;99.90;;;;;;5036247;28;20029;-80
2024/02/06 02:27:50;;;;;;;16.27;6.80;;;10.10;99.90;;;;;;5034918;28;20083;-81
2024/02/06 02:30:17;;;;;;;13.33;6.00;;;10.10;99.90;;;;;;5036236;28;20021;-81
2024/02/06 02:32:44;;;;;;;21.50;6.07;;;10.20;99.90;;;;;;5034765;28;20107;-81
2024/02/06 02:35:12;;;;;;;16.10;5.43;;;10.20;99.90;;;;;;5035821;28;20034;-80
2024/02/06 02:37:39;;;;;;;11.77;5.05;;;10.20;99.90;;;;;;5035692;28;20022;-80
2024/02/06 02:40:09;;;;;;;20.47;6.57;;;10.20;99.90;;;;;;5036117;28;20489;-81
2024/02/06 02:42:35;;;;;;;13.77;6.10;;;10.20;99.90;;;;;;5034433;28;20111;-81
2024/02/06 02:45:02;;;;;;;12.00;5.05;;;10.20;99.90;;;;;;5020574;28;20501;-81
2024/02/06 02:47:27;;;;;;;13.70;5.47;;;10.20;99.90;;;;;;5015634;28;20076;-81
2024/02/06 02:49:53;;;;;;;13.55;4.35;;;10.20;99.90;;;;;;5016073;28;20050;-81
2024/02/06 02:52:19;;;;;;;13.88;4.70;;;10.20;99.90;;;;;;5014718;28;20049;-80
2024/02/06 02:54:44;;;;;;;13.63;5.13;;;10.20;99.90;;;;;;5015872;28;20087;-81
2024/02/06 02:57:10;;;;;;;14.32;4.95;;;10.20;99.90;;;;;;5015744;28;20033;-80
2024/02/06 02:59:35;;;;;;;13.97;4.60;;;10.20;99.90;;;;;;5014483;28;20057;-80
2024/02/06 03:02:01;;;;;;;15.97;4.83;;;10.20;99.90;;;;;;5015952;28;20052;-81
2024/02/06 03:04:27;;;;;;;20.63;5.00;;;10.30;99.90;;;;;;5014195;28;20026;-81
2024/02/06 03:06:52;;;;;;;13.67;4.47;;;10.30;99.90;;;;;;5015362;28;20478;-79
2024/02/06 03:09:19;;;;;;;15.23;4.97;;;10.30;99.90;;;;;;5015603;28;20049;-81
2024/02/06 03:11:45;;;;;;;21.60;5.32;;;10.30;99.90;;;;;;5026305;28;20037;-80
2024/02/06 03:14:12;;;;;;;18.95;4.68;;;10.30;99.90;;;;;;5035345;28;20045;-80
2024/02/06 03:16:38;;;;;;;16.87;5.60;;;10.30;99.90;;;;;;5035546;28;20109;-80
2024/02/06 03:19:04;;;;;;;14.57;3.93;;;10.30;99.90;;;;;;5035240;28;20117;-80
2024/02/06 03:21:30;;;;;;;20.42;4.90;;;10.30;99.90;;;;;;5035146;28;20119;-79
2024/02/06 03:23:56;;;;;;;23.55;5.15;;;10.40;99.90;;;;;;5035049;28;20087;-80
2024/02/06 03:26:21;;;;;;;16.42;4.40;;;10.40;99.90;;;;;;5034896;28;20029;-80
2024/02/06 03:28:47;;;;;;;12.68;4.32;;;10.30;99.90;;;;;;5033884;28;20045;-80
2024/02/06 03:31:12;;;;;;;11.27;4.00;;;10.40;99.90;;;;;;5033892;28;20029;-81
2024/02/06 03:33:38;;;;;;;14.48;3.78;;;10.50;99.90;;;;;;5034444;28;20022;-80
2024/02/06 03:36:04;;;;;;;15.80;4.30;;;10.40;99.90;;;;;;5037529;28;20034;-82
2024/02/06 03:38:30;;;;;;;11.05;4.97;;;10.40;99.90;;;;;;5034867;28;20065;-80
2024/02/06 03:40:55;;;;;;;17.27;4.75;;;10.40;99.90;;;;;;5033536;28;20033;-81
2024/02/06 03:43:21;;;;;;;14.07;4.85;;;10.40;99.90;;;;;;5033499;28;20029;-80
2024/02/06 03:45:46;;;;;;;11.82;5.03;;;10.40;99.90;;;;;;5034772;28;20034;-81
2024/02/06 03:48:14;;;;;;;14.35;4.65;;;10.40;99.90;;;;;;5033397;28;20077;-82
2024/02/06 03:50:40;;;;;;;17.92;6.22;;;10.40;99.90;;;;;;5034501;28;20029;-80
2024/02/06 03:53:05;;;;;;;13.98;5.78;;;10.40;99.90;;;;;;5034495;28;20091;-80
2024/02/06 03:55:31;;;;;;;13.45;5.75;;;10.40;99.90;;;;;;5032993;28;20432;-80
2024/02/06 03:57:57;;;;;;;16.23;6.00;;;10.30;99.90;;;;;;5032993;28;20037;-79
2024/02/06 04:00:23;;;;;;;19.05;6.70;;;10.30;99.90;;;;;;5034342;28;20386;-80
2024/02/06 04:02:48;;;;;;;14.70;6.82;;;10.30;99.90;;;;;;5034227;28;20033;-80
2024/02/06 04:05:14;;;;;;;16.48;7.05;;;10.30;99.90;;;;;;5034070;28;20108;-81
2024/02/06 04:07:40;;;;;;;17.42;7.05;;;10.30;99.90;;;;;;5034515;28;20408;-79
2024/02/06 04:10:06;;;;;;;15.27;6.78;;;10.30;99.90;;;;;;5034637;28;20472;-81
2024/02/06 04:12:32;;;;;;;14.00;6.20;;;10.30;99.90;;;;;;5034353;28;20074;-81
2024/02/06 04:14:59;;;;;;;17.15;7.10;;;10.30;99.90;;;;;;5034381;28;20021;-81
2024/02/06 04:17:24;;;;;;;16.40;6.38;;;10.30;99.90;;;;;;5032921;28;20024;-81
2024/02/06 04:19:50;;;;;;;12.85;6.47;;;10.30;99.90;;;;;;5033849;28;20025;-81
2024/02/06 04:22:16;;;;;;;19.63;6.22;;;10.30;99.90;;;;;;5032789;28;20421;-80
2024/02/06 04:24:41;;;;;;;16.73;5.90;;;10.30;99.90;;;;;;5033636;28;20037;-80
2024/02/06 04:27:07;;;;;;;17.33;7.07;;;10.30;99.90;;;;;;5034239;28;20029;-81
2024/02/06 04:29:33;;;;;;;17.40;7.13;;;10.30;99.90;;;;;;5032498;28;20018;-80
2024/02/06 04:32:00;;;;;;;23.58;7.40;;;10.30;99.90;;;;;;5033899;28;20029;-79
2024/02/06 04:34:27;;;;;;;14.52;6.35;;;10.30;99.90;;;;;;5032532;28;20014;-80
2024/02/06 04:36:53;;;;;;;13.18;6.53;;;10.30;99.90;;;;;;5033776;28;20055;-81
2024/02/06 04:39:19;;;;;;;17.20;6.00;;;10.30;99.90;;;;;;5032206;28;20024;-80
2024/02/06 04:41:45;;;;;;;16.73;7.38;;;10.30;99.90;;;;;;5032523;28;20430;-80
2024/02/06 04:44:10;;;;;;;13.68;6.47;;;10.30;99.90;;;;;;5031645;28;20017;-81
2024/02/06 04:46:36;;;;;;;17.55;6.20;;;10.30;99.90;;;;;;5032074;28;20024;-80
2024/02/06 04:49:02;;;;;;;19.40;6.90;;;10.30;99.90;;;;;;5033310;28;20493;-80
2024/02/06 04:51:29;;;;;;;22.98;7.43;;;10.20;99.90;;;;;;5033412;28;20049;-80
2024/02/06 04:53:54;;;;;;;18.77;7.57;;;10.20;99.90;;;;;;5033312;28;20051;-83
2024/02/06 04:56:24;;;;;;;18.33;7.00;;;10.20;99.90;;;;;;5033466;28;20097;-86
2024/02/06 04:58:50;;;;;;;13.43;6.63;;;10.30;99.90;;;;;;5033125;28;20509;-82
2024/02/06 05:01:17;;;;;;;17.35;6.65;;;10.20;99.90;;;;;;5033358;28;20026;-84
2024/02/06 05:03:43;;;;;;;14.05;5.45;;;10.30;99.90;;;;;;5032081;28;20037;-84
2024/02/06 05:06:11;;;;;;;16.30;7.43;;;10.20;99.90;;;;;;5033434;28;20377;-86
2024/02/06 05:08:38;;;;;;;14.93;6.05;;;10.20;99.90;;;;;;5031840;28;20032;-84
2024/02/06 05:11:04;;;;;;;13.02;5.22;;;10.20;99.90;;;;;;5033365;28;20060;-83
2024/02/06 05:13:30;;;;;;;15.05;6.75;;;10.20;99.90;;;;;;5032075;28;20104;-84
2024/02/06 05:15:56;;;;;;;14.50;6.03;;;10.20;99.90;;;;;;5033250;28;20105;-84
2024/02/06 05:18:21;;;;;;;16.80;5.70;;;10.20;99.90;;;;;;5031608;28;20112;-85
2024/02/06 05:20:47;;;;;;;17.80;6.73;;;10.20;99.90;;;;;;5033194;28;20026;-85
2024/02/06 05:23:14;;;;;;;18.47;7.13;;;10.20;99.90;;;;;;5033037;28;20018;-84
2024/02/06 05:25:41;;;;;;;21.67;8.07;;;10.20;99.90;;;;;;5033129;28;20101;-85
2024/02/06 05:28:07;;;;;;;13.53;5.97;;;10.20;99.90;;;;;;5033176;28;20048;-85
2024/02/06 05:30:35;;;;;;;18.60;6.77;;;10.20;99.90;;;;;;5025255;28;20049;-84
2024/02/06 05:33:01;;;;;;;16.40;7.40;;;10.20;99.90;;;;;;5018526;28;20080;-84
2024/02/06 05:35:26;;;;;;;14.70;7.03;;;10.20;99.90;;;;;;5013237;28;20509;-86
2024/02/06 05:37:52;;;;;;;17.97;7.43;;;10.20;99.90;;;;;;5011538;28;20061;-83
2024/02/06 05:40:18;;;;;;;17.20;7.53;;;10.20;99.90;;;;;;5013334;28;20097;-83
2024/02/06 05:42:43;;;;;;;20.90;7.97;;;10.20;99.90;;;;;;5013044;28;20053;-84
2024/02/06 05:45:09;;;;;;;20.80;8.03;;;10.20;99.90;;;;;;5013508;28;20053;-82
2024/02/06 05:47:35;;;;;;;19.08;8.70;;;10.20;99.90;;;;;;5011255;28;20029;-83
2024/02/06 05:50:01;;;;;;;19.23;7.32;;;10.20;99.90;;;;;;5011703;28;20405;-85
2024/02/06 05:52:27;;;;;;;17.15;7.38;;;10.20;99.90;;;;;;5012838;28;20026;-84
2024/02/06 05:54:53;;;;;;;17.83;8.40;;;10.20;99.90;;;;;;5013008;28;20033;-84
2024/02/06 05:57:19;;;;;;;17.77;7.67;;;10.10;99.90;;;;;;5016437;28;20033;-85
2024/02/06 05:59:44;;;;;;;21.67;8.83;;;10.20;99.90;;;;;;5016881;28;20371;-83
2024/02/06 06:02:10;;;;;;;21.80;9.13;;;10.10;99.90;;;;;;5017287;28;20026;-87
2024/02/06 06:04:35;;;;;;;15.65;7.70;;;10.10;99.90;;;;;;5016805;28;20079;-84
2024/02/06 06:07:01;;;;;;;24.00;8.50;;;10.10;99.90;;;;;;5018697;28;20541;-84
2024/02/06 06:09:27;;;;;;;18.40;8.00;;;10.00;99.90;;;;;;5028046;28;20466;-84
2024/02/06 06:11:52;;;;;;;15.87;7.47;;;10.00;99.90;;;;;;5035536;28;20052;-83
2024/02/06 06:14:18;;;;;;;20.27;8.67;;;10.10;99.90;;;;;;5031689;28;20025;-84
2024/02/06 06:16:44;;;;;;;21.83;8.37;;;10.00;99.90;;;;;;5027039;28;20458;-85
2024/02/06 06:19:09;;;;;;;22.08;8.70;;;10.00;99.90;;;;;;5025089;28;20076;-84
2024/02/06 06:21:35;;;;;;;18.27;8.57;;;10.00;99.90;;;;;;5025887;28;20064;-85
2024/02/06 06:24:01;;;;;;;18.98;8.35;;;10.00;99.90;;;;;;5026275;28;20022;-85
2024/02/06 06:26:26;;;;;;;22.90;8.27;;;10.00;99.90;;;;;;5023736;28;20025;-86
2024/02/06 06:28:52;;;;;;;25.50;8.77;;;10.00;99.90;;;;;;5031644;28;20025;-86
2024/02/06 06:31:18;;;;;;;23.77;9.95;;;10.00;99.90;;;;;;5035317;28;20029;-89
2024/02/06 06:33:44;;;;;;;19.60;8.70;;;10.00;99.90;;;;;;5026588;28;20041;-86
2024/02/06 06:36:09;;;;;;;14.47;8.43;;;10.00;99.90;;;;;;5027079;28;20022;-86
2024/02/06 06:38:35;;;;;;;20.85;9.13;;;10.00;99.90;;;;;;5027265;28;20032;-87
2024/02/06 06:41:01;;;;;;;22.13;8.83;;;10.00;99.90;;;;;;5025786;28;20032;-87
2024/02/06 06:43:26;;;;;;;20.60;9.10;;;10.00;99.90;;;;;;5024640;28;20017;-86
2024/02/06 06:45:52;;;;;;;18.80;8.23;;;10.00;99.90;;;;;;5027111;28;20028;-85
2024/02/06 06:48:18;;;;;;;25.83;8.73;;;9.90;99.90;;;;;;5034077;28;20080;-85
2024/02/06 06:50:44;;;;;;;22.92;8.52;;;10.00;99.90;;;;;;5035851;28;20037;-84
2024/02/06 06:53:09;;;;;;;20.97;7.60;;;9.90;99.90;;;;;;5034633;28;20414;-84
2024/02/06 06:55:35;;;;;;;22.83;7.63;;;10.00;99.90;;;;;;5035568;28;20014;-85
2024/02/06 06:58:01;;;;;;;22.83;7.47;;;10.00;99.90;;;;;;5036064;28;20072;-85
2024/02/06 07:00:26;;;;;;;19.40;7.17;;;10.00;99.90;;;;;;5036000;28;20037;-82
2024/02/06 07:02:52;;;;;;;25.02;7.90;;;10.00;99.90;;;;;;5034419;28;20385;-86
2024/02/06 07:05:22;;;;;;;19.00;6.70;;;10.00;99.90;;;;;;5034448;28;20505;-84
2024/02/06 07:07:48;;;;;;;15.50;6.80;;;10.00;99.90;;;;;;5034947;28;20034;-87
2024/02/06 07:10:14;;;;;;;20.48;6.85;;;10.00;99.90;;;;;;5036056;28;20427;-86
2024/02/06 07:12:40;;;;;;;18.48;7.25;;;10.00;99.90;;;;;;5035432;28;20086;-85
2024/02/06 07:15:06;;;;;;;21.23;6.57;;;10.00;99.90;;;;;;5035865;28;20029;-86
2024/02/06 07:17:32;;;;;;;25.27;7.47;;;10.00;99.90;;;;;;5035581;28;20026;-86
2024/02/06 07:19:58;;;;;;;18.90;5.63;;;10.00;99.90;;;;;;5034639;28;20025;-86
2024/02/06 07:22:24;;;;;;;18.30;6.70;;;10.00;99.90;;;;;;5036107;28;20366;-85
2024/02/06 07:24:50;;;;;;;17.73;6.37;;;10.00;99.90;;;;;;5034380;28;20069;-83
2024/02/06 07:27:16;;;;;;;16.63;6.23;;;10.00;99.90;;;;;;5033666;28;20022;-84
2024/02/06 07:29:42;;;;;;;21.20;5.90;;;10.10;99.90;;;;;;5034148;28;20028;-87
2024/02/06 07:32:08;;;;;;;18.80;5.87;;;10.10;99.90;;;;;;5035249;28;20026;-85
2024/02/06 07:34:33;;;;;;;19.95;6.50;;;10.10;99.90;;;;;;5033939;28;20060;-83
2024/02/06 07:36:59;;;;;;;18.60;7.07;;;10.10;99.90;;;;;;5035200;28;20446;-87
2024/02/06 07:39:25;;;;;;;14.70;5.68;;;10.10;99.90;;;;;;5035176;28;20084;-88
2024/02/06 07:41:51;;;;;;;15.82;6.22;;;10.10;99.90;;;;;;5034295;28;20064;-86
2024/02/06 07:44:18;;;;;;;16.53;6.07;;;10.10;99.90;;;;;;5035375;28;20102;-85
2024/02/06 07:46:44;;;;;;;20.70;6.78;;;10.10;99.90;;;;;;5034760;28;20021;-85
2024/02/06 07:49:10;;;;;;;17.15;6.43;;;10.00;99.90;;;;;;5034264;28;20083;-84
2024/02/06 07:51:35;;;;;;;18.73;6.63;;;10.10;99.90;;;;;;5035227;28;20025;-87
2024/02/06 07:54:02;;;;;;;15.80;7.40;;;10.00;99.90;;;;;;5033635;28;20539;-87
2024/02/06 07:56:30;;;;;;;18.63;8.00;;;10.00;99.90;;;;;;5033082;28;20021;-87
2024/02/06 07:58:58;;;;;;;19.13;6.72;;;10.00;99.90;;;;;;5032833;28;20021;-85
2024/02/06 08:01:24;;;;;;;18.00;7.53;;;10.00;99.90;;;;;;5034671;28;20013;-86
2024/02/06 08:03:50;;;;;;;17.23;6.57;;;10.00;99.90;;;;;;5034693;28;20017;-86
2024/02/06 08:06:17;;;;;;;15.47;7.17;;;10.00;99.90;;;;;;5034551;28;20018;-84
2024/02/06 08:08:42;;;;;;;16.27;7.63;;;10.00;99.90;;;;;;5033980;28;20021;-84
2024/02/06 08:11:08;;;;;;;19.20;6.80;;;9.90;99.90;;;;;;5034112;28;20033;-85
2024/02/06 08:13:34;;;;;;;19.50;7.97;;;10.00;99.90;;;;;;5034623;28;20017;-86
2024/02/06 08:15:59;;;;;;;16.65;7.32;;;9.90;99.90;;;;;;5034583;28;20076;-83
2024/02/06 08:18:25;;;;;;;17.93;7.10;;;9.90;99.90;;;;;;5033115;28;20021;-87
2024/02/06 08:20:51;;;;;;;20.15;7.45;;;9.90;99.90;;;;;;5034486;28;20489;-82
2024/02/06 08:23:16;;;;;;;16.73;6.50;;;9.90;99.90;;;;;;5032706;28;20481;-87
2024/02/06 08:25:42;;;;;;;18.50;7.57;;;9.90;99.90;;;;;;5033503;28;20104;-87
2024/02/06 08:28:09;;;;;;;22.38;7.65;;;9.90;99.90;;;;;;5034106;28;20025;-85
2024/02/06 08:30:34;;;;;;;14.40;6.60;;;9.90;99.90;;;;;;5034008;28;20030;-86
2024/02/06 08:33:00;;;;;;;21.83;7.80;;;10.00;99.90;;;;;;5033042;28;20031;-87
2024/02/06 08:35:26;;;;;;;22.27;8.10;;;10.00;99.90;;;;;;5034220;28;20032;-85
2024/02/06 08:37:52;;;;;;;22.63;7.68;;;9.90;99.90;;;;;;5034129;28;20032;-83
2024/02/06 08:40:17;;;;;;;17.97;6.87;;;10.00;99.90;;;;;;5033629;28;20148;-87
2024/02/06 08:42:43;;;;;;;22.57;8.20;;;10.00;99.90;;;;;;5032426;28;20065;-85
2024/02/06 08:45:09;;;;;;;13.60;6.63;;;10.00;99.90;;;;;;5033798;28;20486;-87
2024/02/06 08:47:35;;;;;;;16.23;6.18;;;10.00;99.90;;;;;;5033407;28;20029;-85
2024/02/06 08:50:01;;;;;;;18.90;6.80;;;10.00;99.90;;;;;;5032318;28;20133;-85
2024/02/06 08:52:27;;;;;;;20.20;7.30;;;10.00;99.90;;;;;;5033396;28;20032;-85
2024/02/06 08:54:52;;;;;;;16.20;6.97;;;10.10;99.90;;;;;;5032649;28;20021;-87
2024/02/06 08:57:18;;;;;;;16.57;7.13;;;10.10;99.90;;;;;;5033639;28;20034;-87
2024/02/06 08:59:44;;;;;;;25.40;6.80;;;10.10;99.90;;;;;;5033442;28;20509;-87
2024/02/06 09:02:09;;;;;;;19.25;6.15;;;10.10;99.90;;;;;;5033753;28;20049;-86
2024/02/06 09:04:35;;;;;;;20.43;7.00;;;10.10;99.90;;;;;;5032239;28;20075;-86
2024/02/06 09:07:01;;;;;;;27.92;8.48;;;10.20;99.90;;;;;;5032212;28;20429;-86
2024/02/06 09:09:27;;;;;;;24.58;5.93;;;10.10;99.90;;;;;;5033814;28;20607;-87
2024/02/06 09:11:52;;;;;;;20.73;6.55;;;10.20;99.90;;;;;;5033726;28;20029;-86
2024/02/06 09:14:18;;;;;;;22.50;5.80;;;10.20;99.90;;;;;;5032124;28;20052;-84
2024/02/06 09:16:44;;;;;;;24.27;5.40;;;10.30;99.90;;;;;;5033724;28;20025;-87
2024/02/06 09:19:10;;;;;;;30.15;6.97;;;10.30;99.90;;;;;;5032191;28;20084;-86
2024/02/06 09:21:36;;;;;;;16.88;5.15;;;10.30;99.90;;;;;;5032960;28;20026;-87
2024/02/06 09:24:02;;;;;;;18.90;5.45;;;10.40;99.90;;;;;;5032082;28;20112;-85
2024/02/06 09:26:27;;;;;;;27.10;5.78;;;10.40;99.90;;;;;;5031762;28;20033;-85
2024/02/06 09:28:53;;;;;;;19.73;5.13;;;10.50;99.90;;;;;;5032868;28;20034;-85
2024/02/06 09:31:20;;;;;;;25.67;4.97;;;10.50;99.90;;;;;;5032725;28;20033;-87
2024/02/06 09:33:46;;;;;;;23.33;4.97;;;10.60;99.90;;;;;;5032651;28;20026;-86
2024/02/06 09:36:11;;;;;;;21.95;3.88;;;10.60;99.90;;;;;;5033020;28;20017;-83
2024/02/06 09:38:37;;;;;;;16.77;3.67;;;10.70;99.90;;;;;;5032507;28;20481;-86
2024/02/06 09:41:05;;;;;;;13.32;3.95;;;10.70;99.90;;;;;;5031927;28;20109;-87
2024/02/06 09:43:31;;;;;;;15.15;3.55;;;10.70;99.90;;;;;;5032957;28;20029;-83
2024/02/06 09:45:57;;;;;;;15.13;2.75;;;10.80;99.90;;;;;;5032898;28;20079;-86
2024/02/06 09:48:26;;;;;;;14.07;2.50;;;10.90;99.90;;;;;;5032423;28;20094;-84
2024/02/06 09:50:55;;;;;;;8.98;2.15;;;11.00;99.90;;;;;;5032486;28;20064;-86
2024/02/06 09:53:25;;;;;;;16.80;2.65;;;11.10;99.90;;;;;;5033110;28;20083;-85
2024/02/06 09:55:51;;;;;;;18.52;3.17;;;11.10;99.90;;;;;;5032982;28;20022;-88
2024/02/06 09:58:18;;;;;;;16.85;3.10;;;11.20;99.90;;;;;;5033048;28;20064;-87
2024/02/06 10:00:44;;;;;;;11.60;2.05;;;11.30;99.90;;;;;;5033341;28;20065;-83
2024/02/06 10:03:26;;;;;;;16.95;2.55;;;11.40;99.90;;;;;;5032520;28;20022;-85
2024/02/06 10:05:54;;;;;;;10.25;2.15;;;11.50;99.90;;;;;;5032524;28;20033;-88
2024/02/06 10:08:21;;;;;;;11.15;2.00;;;11.50;99.90;;;;;;5032696;28;20163;-87
2024/02/06 10:10:48;;;;;;;10.90;2.28;;;11.60;99.90;;;;;;5031663;28;20473;-88
2024/02/06 10:13:15;;;;;;;14.02;3.08;;;11.60;99.90;;;;;;5032498;28;20018;-87
2024/02/06 10:15:40;;;;;;;13.95;3.08;;;11.60;99.90;;;;;;5032406;28;20029;-83
2024/02/06 10:18:06;;;;;;;12.77;3.03;;;11.70;99.90;;;;;;5029413;28;20026;-87
2024/02/06 10:20:42;;;;;;;16.35;2.67;;;11.70;99.90;;;;;;5015146;28;20030;-84
2024/02/06 10:23:18;;;;;;;12.73;3.35;;;11.70;99.90;;;;;;5031919;28;20057;-87
2024/02/06 10:25:44;;;;;;;9.63;4.00;;;11.70;99.90;;;;;;5031665;28;20029;-86
2024/02/06 10:28:18;;;;;;;14.50;3.78;;;11.80;99.90;;;;;;5032982;28;20034;-86
2024/02/06 10:30:44;;;;;;;14.05;3.67;;;11.80;99.90;;;;;;5033100;28;20471;-85
2024/02/06 10:33:14;;;;;;;14.88;4.60;;;11.80;99.90;;;;;;5033338;28;20036;-87
2024/02/06 10:35:40;;;;;;;12.38;3.85;;;11.80;99.90;;;;;;5032906;28;20096;-85
2024/02/06 10:38:13;;;;;;;12.85;3.72;;;11.90;99.90;;;;;;5034210;28;20029;-88
2024/02/06 10:40:43;;;;;;;14.00;3.45;;;11.90;99.90;;;;;;5032991;28;20064;-84
2024/02/06 10:43:10;;;;;;;17.63;3.47;;;11.90;99.90;;;;;;5034258;28;20013;-85
2024/02/06 10:45:36;;;;;;;14.48;4.03;;;12.00;99.90;;;;;;5036521;28;20026;-84
2024/02/06 10:48:03;;;;;;;11.98;2.90;;;12.10;99.90;;;;;;5035723;28;20044;-86
2024/02/06 10:50:30;;;;;;;17.00;4.55;;;12.10;99.90;;;;;;5034352;28;20045;-88
2024/02/06 10:52:56;;;;;;;15.40;4.45;;;12.20;99.90;;;;;;5034994;28;20035;-83
2024/02/06 10:55:22;;;;;;;17.98;3.08;;;12.30;99.90;;;;;;5036227;28;20109;-82
2024/02/06 10:57:53;;;;;;;13.57;2.72;;;12.30;99.90;;;;;;5034831;28;20061;-83
2024/02/06 11:00:26;;;;;;;14.02;3.00;;;12.30;99.90;;;;;;5035208;28;20496;-85
2024/02/06 11:02:58;;;;;;;13.15;2.70;;;12.40;99.90;;;;;;5036085;28;20030;-84
2024/02/06 11:05:41;;;;;;;17.80;3.75;;;12.50;99.90;;;;;;5035921;28;20045;-86
2024/02/06 11:08:34;;;;;;;13.45;2.72;;;12.50;99.90;;;;;;5035803;28;20025;-80
2024/02/06 11:11:02;;;;;;;20.25;2.70;;;12.60;99.90;;;;;;5032952;28;20052;-85
2024/02/06 11:13:42;;;;;;;14.80;2.08;;;12.60;99.90;;;;;;5035798;28;20152;-85
2024/02/06 11:16:10;;;;;;;13.25;2.65;;;12.70;99.90;;;;;;5035820;28;20021;-87
2024/02/06 11:18:47;;;;;;;14.65;2.55;;;12.70;99.90;;;;;;5035267;28;20112;-87
2024/02/06 11:21:14;;;;;;;13.95;3.13;;;12.70;99.90;;;;;;5035533;28;20076;-83
2024/02/06 11:23:41;;;;;;;15.68;3.17;;;12.80;99.90;;;;;;5034346;28;20044;-83
2024/02/06 11:26:08;;;;;;;11.82;2.45;;;12.80;99.90;;;;;;5035444;28;20033;-88
2024/02/06 11:28:33;;;;;;;18.00;3.22;;;12.70;99.90;;;;;;5035910;28;20025;-86
2024/02/06 11:31:03;;;;;;;13.38;3.42;;;12.70;99.90;;;;;;5034928;28;20083;-87
2024/02/06 11:33:35;;;;;;;14.98;2.88;;;12.70;99.90;;;;;;5034206;28;20028;-89
2024/02/06 11:36:07;;;;;;;17.38;2.55;;;12.60;99.90;;;;;;5035319;28;20022;-84
2024/02/06 11:38:34;;;;;;;12.85;2.42;;;12.60;99.90;;;;;;5035437;28;20112;-85
2024/02/06 11:41:16;;;;;;;14.48;2.58;;;12.60;99.90;;;;;;5034184;28;20084;-85
2024/02/06 11:43:42;;;;;;;9.15;2.00;;;12.60;99.90;;;;;;5035624;28;20018;-85
2024/02/06 11:46:08;;;;;;;12.55;3.47;;;12.50;99.90;;;;;;5034699;28;20056;-84
2024/02/06 11:48:34;;;;;;;7.55;2.05;;;12.50;99.90;;;;;;5033145;28;20025;-84
2024/02/06 11:51:00;;;;;;;14.73;2.47;;;12.40;99.90;;;;;;5034975;28;20053;-87
2024/02/06 11:53:27;;;;;;;10.85;2.22;;;12.40;99.90;;;;;;5034738;28;20021;-84
2024/02/06 11:56:02;;;;;;;11.65;2.40;;;12.40;99.90;;;;;;5033648;28;20492;-83
2024/02/06 11:58:28;;;;;;;8.60;1.92;;;12.30;99.90;;;;;;5034722;28;20033;-86
2024/02/06 12:00:55;;;;;;;14.77;2.72;;;12.30;99.90;;;;;;5034942;28;20486;-85
2024/02/06 12:03:22;;;;;;;9.52;2.08;;;12.30;99.90;;;;;;5034873;28;20084;-82
2024/02/06 12:05:47;;;;;;;11.68;1.92;;;12.30;99.90;;;;;;5034609;28;20113;-85
2024/02/06 12:08:19;;;;;;;8.02;1.55;;;12.30;99.90;;;;;;5032710;28;20551;-85
2024/02/06 12:10:45;;;;;;;7.05;1.30;;;12.30;99.90;;;;;;5034781;28;20033;-86
2024/02/06 12:13:12;;;;;;;8.48;1.52;;;12.30;99.90;;;;;;5034558;28;20025;-84
2024/02/06 12:15:39;;;;;;;16.33;1.70;;;12.30;99.90;;;;;;5033564;28;20053;-88
2024/02/06 12:18:13;;;;;;;9.32;1.90;;;12.30;99.90;;;;;;5035001;28;20025;-82
2024/02/06 12:20:40;;;;;;;8.35;1.48;;;12.30;99.90;;;;;;5034560;28;20032;-87
2024/02/06 12:23:07;;;;;;;9.25;1.90;;;12.30;99.90;;;;;;5033054;28;20048;-82
2024/02/06 12:25:40;;;;;;;9.50;1.70;;;12.40;99.90;;;;;;5034894;28;20076;-82
2024/02/06 12:28:14;;;;;;;11.30;2.42;;;12.40;99.90;;;;;;5033344;28;20027;-84
2024/02/06 12:30:41;;;;;;;10.13;2.00;;;12.40;99.90;;;;;;5034310;28;20481;-82
2024/02/06 12:33:07;;;;;;;10.85;1.98;;;12.40;99.90;;;;;;5034542;28;20083;-86
2024/02/06 12:35:34;;;;;;;12.38;3.03;;;12.50;99.90;;;;;;5034468;28;20475;-84